createdAt,value
2017-10-02T00:00:20.663Z,95.4
2017-10-02T00:05:10.335Z,95.3
2017-10-02T00:10:03.084Z,95.3
2017-10-02T00:15:10.943Z,95.3
2017-10-02T00:20:03.135Z,95.3
2017-10-02T00:25:02.834Z,95.2
2017-10-02T00:30:02.713Z,95.1
2017-10-02T00:35:05.931Z,95.3
2017-10-02T00:40:05.227Z,95.2
2017-10-02T00:45:02.968Z,95.2
2017-10-02T00:50:07.852Z,95.2
2017-10-02T00:55:06.036Z,95.2
2017-10-02T01:00:10.913Z,95.5
2017-10-02T01:05:02.983Z,95.5
2017-10-02T01:10:10.856Z,96.3
2017-10-02T01:15:03.453Z,96.3
2017-10-02T01:20:08.284Z,96.8
2017-10-02T01:25:07.963Z,97.1
2017-10-02T01:30:07.730Z,97.3
2017-10-02T01:35:05.774Z,97.2
2017-10-02T01:40:35.574Z,97.2
2017-10-02T01:45:05.246Z,97.3
2017-10-02T01:50:07.599Z,97
2017-10-02T01:55:08.225Z,97.1
2017-10-02T02:00:10.614Z,97.1
2017-10-02T02:05:02.561Z,97
2017-10-02T02:10:02.778Z,97.1
2017-10-02T02:15:18.111Z,97.4
2017-10-02T02:20:05.226Z,97.4
2017-10-02T02:25:03.273Z,97.4
2017-10-02T02:30:02.979Z,97.5
2017-10-02T02:35:02.640Z,97.4
2017-10-02T02:40:05.464Z,97
2017-10-02T02:45:18.197Z,97.1
2017-10-02T02:50:02.771Z,97.1
2017-10-02T02:55:08.474Z,96.8
2017-10-02T03:00:05.684Z,96.8
2017-10-02T03:05:02.793Z,96.8
2017-10-02T03:10:05.563Z,96.8
2017-10-02T03:15:05.702Z,96.7
2017-10-02T03:20:05.451Z,96.5
2017-10-02T03:25:06.077Z,96.5
2017-10-02T03:30:08.426Z,96.5
2017-10-02T03:35:10.587Z,96.5
2017-10-02T03:40:05.762Z,96.2
2017-10-02T03:45:18.455Z,96.2
2017-10-02T03:50:05.537Z,96.2
2017-10-02T03:55:27.942Z,96
2017-10-02T04:00:18.605Z,96
2017-10-02T04:05:10.623Z,95.9
2017-10-02T04:10:18.568Z,96
2017-10-02T04:15:08.437Z,96
2017-10-02T04:20:03.084Z,96
2017-10-02T04:25:07.724Z,96.3
2017-10-02T04:30:05.977Z,96.3
2017-10-02T04:35:03.011Z,96.3
2017-10-02T04:40:18.441Z,96.3
2017-10-02T04:45:05.839Z,96.3
2017-10-02T04:50:03.060Z,96.3
2017-10-02T04:55:02.613Z,96.5
2017-10-02T05:00:03.361Z,96.2
2017-10-02T05:05:05.515Z,96.2
2017-10-02T05:10:08.323Z,96.2
2017-10-02T05:15:03.293Z,96.2
2017-10-02T05:20:08.096Z,96.1
2017-10-02T05:25:07.722Z,96.1
2017-10-02T05:30:18.600Z,96.1
2017-10-02T05:35:05.545Z,96.1
2017-10-02T05:40:28.681Z,96
2017-10-02T05:45:18.583Z,96
2017-10-02T05:50:03.118Z,96
2017-10-02T05:55:02.709Z,95.8
2017-10-02T06:00:08.482Z,95.5
2017-10-02T06:05:05.589Z,95.3
2017-10-02T06:10:03.238Z,95.3
2017-10-02T06:15:10.905Z,95.2
2017-10-02T06:20:25.848Z,95.1
2017-10-02T06:25:10.252Z,95.1
2017-10-02T06:30:05.959Z,95.1
2017-10-02T06:35:03.057Z,95.1
2017-10-02T06:40:05.907Z,94.9
2017-10-02T06:45:08.484Z,94.7
2017-10-02T06:50:08.283Z,94.6
2017-10-02T06:55:07.919Z,94.7
2017-10-02T07:00:05.160Z,94.4
2017-10-02T07:05:05.831Z,94.3
2017-10-02T07:15:05.300Z,94
2017-10-02T07:20:11.140Z,93.5
2017-10-02T07:25:03.241Z,93.5
2017-10-02T07:30:15.800Z,93.2
2017-10-02T07:35:30.592Z,92.8
2017-10-02T07:40:08.104Z,92.9
2017-10-02T07:45:05.822Z,92.6
2017-10-02T07:50:05.641Z,92.2
2017-10-02T07:55:25.561Z,92.4
2017-10-02T08:00:05.162Z,91.9
2017-10-02T08:05:10.942Z,91.7
2017-10-02T08:10:02.780Z,91.7
2017-10-02T08:15:05.508Z,91.4
2017-10-02T08:20:07.940Z,91.5
2017-10-02T08:25:02.558Z,91.5
2017-10-02T08:30:03.599Z,91.5
2017-10-02T08:35:08.249Z,91.2
2017-10-02T08:40:05.121Z,90.4
2017-10-02T08:45:18.090Z,90.2
2017-10-02T08:50:07.815Z,90.5
2017-10-02T08:55:11.093Z,89.8
2017-10-02T09:00:05.943Z,89.2
2017-10-02T09:05:05.681Z,89.5
2017-10-02T09:10:02.608Z,89.5
2017-10-02T09:15:13.075Z,61.6
2017-10-02T09:20:20.586Z,86.4
2017-10-02T09:25:30.513Z,85.5
2017-10-02T09:30:18.797Z,85.6
2017-10-02T09:35:05.882Z,84.4
2017-10-02T09:40:05.316Z,84.9
2017-10-02T09:45:10.699Z,83.5
2017-10-02T09:50:05.543Z,82.9
2017-10-02T09:55:05.421Z,82
2017-10-02T10:00:05.295Z,81.8
2017-10-02T10:05:02.650Z,81.8
2017-10-02T10:10:03.050Z,81.8
2017-10-02T10:15:03.444Z,81.5
2017-10-02T10:20:08.472Z,80.4
2017-10-02T10:25:23.480Z,79.8
2017-10-02T10:30:18.340Z,79.5
2017-10-02T10:35:05.614Z,80.3
2017-10-02T10:40:08.684Z,80.6
2017-10-02T10:45:05.399Z,81
2017-10-02T10:50:13.091Z,82.1
2017-10-02T10:55:12.884Z,84.1
2017-10-02T11:00:07.799Z,86.8
2017-10-02T11:05:05.223Z,90.3
2017-10-02T11:10:05.707Z,91.3
2017-10-02T11:15:07.695Z,92.1
2017-10-02T11:20:07.648Z,93.4
2017-10-02T11:25:11.100Z,93.7
2017-10-02T11:30:03.395Z,93.7
2017-10-02T11:35:05.850Z,94.8
2017-10-02T11:40:13.017Z,95.2
2017-10-02T11:45:05.599Z,95
2017-10-02T11:50:02.943Z,94.9
2017-10-02T11:55:18.010Z,95.4
2017-10-02T12:00:02.749Z,95.3
2017-10-02T12:05:20.270Z,95.5
2017-10-02T12:10:05.563Z,95.8
2017-10-02T12:15:03.284Z,95.8
2017-10-02T12:20:03.116Z,95.8
2017-10-02T12:25:08.046Z,95.5
2017-10-02T12:30:05.424Z,95.8
2017-10-02T12:35:02.746Z,95.8
2017-10-02T12:40:03.145Z,95.7
2017-10-02T12:45:06.030Z,95.7
2017-10-02T12:50:18.584Z,96
2017-10-02T12:55:10.857Z,95.5
2017-10-02T13:00:03.177Z,95.4
2017-10-02T13:05:15.652Z,95.1
2017-10-02T13:10:18.710Z,95.7
2017-10-02T13:15:05.366Z,95.3
2017-10-02T13:20:33.054Z,95.5
2017-10-02T13:25:11.127Z,95.5
2017-10-02T13:30:11.104Z,95.7
2017-10-02T13:35:03.270Z,95.7
2017-10-02T13:40:02.704Z,95.9
2017-10-02T13:45:03.023Z,96.7
2017-10-02T13:50:10.463Z,96.7
2017-10-02T13:55:10.261Z,96.9
2017-10-02T14:00:05.146Z,96.8
2017-10-02T14:05:10.968Z,97.1
2017-10-02T14:10:10.332Z,97
2017-10-02T14:15:05.604Z,97.4
2017-10-02T14:20:15.592Z,97.2
2017-10-02T14:25:02.708Z,97.2
2017-10-02T14:30:10.170Z,97.1
2017-10-02T14:35:10.914Z,97.8
2017-10-02T14:40:05.242Z,97.9
2017-10-02T14:45:03.057Z,97.9
2017-10-02T14:50:02.931Z,97.7
2017-10-02T14:55:05.289Z,97.7
2017-10-02T15:00:02.579Z,97.7
2017-10-02T15:05:03.340Z,97.8
2017-10-02T15:10:05.225Z,97.7
2017-10-02T15:15:18.159Z,97.6
2017-10-02T15:20:05.436Z,97.8
2017-10-02T15:25:02.683Z,97.7
2017-10-02T15:30:08.591Z,97.8
2017-10-02T15:35:03.324Z,97.8
2017-10-02T15:40:15.486Z,97.8
2017-10-02T15:45:05.514Z,97.9
2017-10-02T15:50:02.962Z,97.9
2017-10-02T15:55:02.777Z,97.7
2017-10-02T16:00:02.593Z,97.7
2017-10-02T16:05:03.447Z,97.8
2017-10-02T16:10:02.762Z,97.6
2017-10-02T16:15:05.711Z,97.6
2017-10-02T16:20:03.096Z,97.6
2017-10-02T16:25:05.500Z,97.5
2017-10-02T16:30:02.874Z,97.5
2017-10-02T16:35:02.724Z,97.4
2017-10-02T16:45:21.174Z,97.3
2017-10-02T16:50:08.459Z,97.2
2017-10-02T16:55:08.303Z,97.4
2017-10-02T17:00:03.251Z,97.4
2017-10-02T17:05:20.741Z,97.3
2017-10-02T17:10:03.469Z,97.3
2017-10-02T17:15:12.921Z,97.4
2017-10-02T17:20:02.657Z,97.4
2017-10-02T17:25:07.615Z,97.3
2017-10-02T17:30:03.482Z,97.3
2017-10-02T17:35:03.289Z,97.3
2017-10-02T17:40:23.023Z,97.4
2017-10-02T17:45:10.682Z,97.3
2017-10-02T17:50:02.966Z,97.3
2017-10-02T17:55:02.853Z,97.3
2017-10-02T18:00:07.836Z,97.3
2017-10-02T18:05:07.654Z,97.2
2017-10-02T18:10:03.057Z,97.2
2017-10-02T18:15:26.218Z,97.2
2017-10-02T18:20:10.957Z,97.1
2017-10-02T18:25:10.823Z,97
2017-10-02T18:30:05.709Z,96.9
2017-10-02T18:35:08.088Z,97
2017-10-02T18:40:03.463Z,97
2017-10-02T18:45:20.530Z,96.9
2017-10-02T18:50:10.314Z,96.9
2017-10-02T18:55:10.147Z,96.8
2017-10-02T19:00:08.593Z,96.8
2017-10-02T19:05:10.930Z,96.8
2017-10-02T19:10:20.442Z,96.8
2017-10-02T19:15:18.332Z,96.9
2017-10-02T19:20:08.111Z,96.9
2017-10-02T19:25:05.391Z,97
2017-10-02T19:30:02.727Z,96.9
2017-10-02T19:35:02.614Z,96.9
2017-10-02T19:40:10.635Z,96.9
2017-10-02T19:45:03.369Z,96.9
2017-10-02T19:50:03.267Z,96.9
2017-10-02T19:55:30.915Z,96.7
2017-10-02T20:00:15.635Z,96.6
2017-10-02T20:05:02.829Z,96.6
2017-10-02T20:10:05.734Z,96.5
2017-10-02T20:15:05.086Z,96.6
2017-10-02T20:20:08.533Z,96.5
2017-10-02T20:25:03.299Z,96.5
2017-10-02T20:30:03.239Z,96.7
2017-10-02T20:35:03.051Z,96.7
2017-10-02T20:40:11.218Z,96.6
2017-10-02T20:45:07.980Z,96.6
2017-10-02T20:50:02.831Z,96.6
2017-10-02T20:55:17.941Z,96.6
2017-10-02T21:00:15.357Z,96.3
2017-10-02T21:05:06.018Z,96.4
2017-10-02T21:10:10.596Z,96.5
2017-10-02T21:15:05.776Z,96.4
2017-10-02T21:20:10.854Z,96.4
2017-10-02T21:25:05.609Z,96.3
2017-10-02T21:30:18.154Z,96.3
2017-10-02T21:35:20.498Z,96.2
2017-10-02T21:40:10.787Z,96.4
2017-10-02T21:45:03.537Z,96.3
2017-10-02T21:50:06.085Z,96.2
2017-10-02T21:55:03.350Z,96.2
2017-10-02T22:05:05.621Z,96.3
2017-10-02T22:10:03.626Z,96.2
2017-10-02T22:15:02.906Z,96.4
2017-10-02T22:20:07.891Z,96.5
2017-10-02T22:25:02.674Z,96.5
2017-10-02T22:30:02.676Z,96.5
2017-10-02T22:35:06.075Z,96.4
2017-10-02T22:40:02.878Z,96.4
2017-10-02T22:45:23.592Z,96.2
2017-10-02T22:50:08.280Z,96.4
2017-10-02T22:55:08.119Z,96.3
2017-10-02T23:00:05.639Z,96.5
2017-10-02T23:05:02.941Z,96.5
2017-10-02T23:10:03.418Z,96.3
2017-10-02T23:15:02.794Z,96.4
2017-10-02T23:20:05.246Z,96.1
2017-10-02T23:25:07.679Z,96
2017-10-02T23:30:05.106Z,96.2
2017-10-02T23:35:03.403Z,96.2
2017-10-02T23:40:07.942Z,96.3
2017-10-02T23:45:10.793Z,96
2017-10-02T23:50:05.721Z,95.9
2017-10-02T23:55:30.789Z,95.8
